Time;durP1;ratioP1;P1;durP2;ratioP2;P2;SDS_P1;SDS_P2;PMS_P1;PMS_P2;Temp;Humidity;BMP_temperature;BMP_pressure;BME280_temperature;BME280_humidity;BME280_pressure;Samples;Min_cycle;Max_cycle;Signal;HPM_P1;HPM_P2
2022/08/02 00:00:55;;;;;;;4.47;2.22;;;16.70;99.90;;;;;;5071504;28;20197;-81
2022/08/02 00:03:22;;;;;;;4.50;1.92;;;16.70;99.90;;;;;;5074186;28;20897;-80
2022/08/02 00:05:49;;;;;;;5.03;2.25;;;16.60;99.90;;;;;;5091470;28;20204;-80
2022/08/02 00:08:16;;;;;;;4.43;2.13;;;16.60;99.90;;;;;;5091901;28;20197;-82
2022/08/02 00:10:43;;;;;;;5.78;1.92;;;16.60;99.90;;;;;;5087426;28;20776;-81
2022/08/02 00:13:11;;;;;;;4.20;1.92;;;16.60;99.90;;;;;;5071959;28;20201;-81
2022/08/02 00:15:38;;;;;;;2.85;1.85;;;16.60;99.90;;;;;;5071797;28;20221;-81
2022/08/02 00:18:05;;;;;;;3.45;1.70;;;16.50;99.90;;;;;;5071137;28;20523;-82
2022/08/02 00:20:32;;;;;;;1.48;1.35;;;16.50;99.90;;;;;;5073909;28;20201;-80
2022/08/02 00:22:58;;;;;;;3.65;1.88;;;16.50;99.90;;;;;;5075088;28;20194;-81
2022/08/02 00:25:25;;;;;;;5.53;1.73;;;16.40;99.90;;;;;;5075039;28;20197;-81
2022/08/02 00:27:52;;;;;;;2.72;1.85;;;16.40;99.90;;;;;;5075026;28;20199;-81
2022/08/02 00:30:20;;;;;;;2.60;1.90;;;16.40;99.90;;;;;;5074664;28;20211;-81
2022/08/02 00:32:47;;;;;;;4.40;2.00;;;16.30;99.90;;;;;;5087085;28;20214;-80
2022/08/02 00:35:14;;;;;;;3.88;1.83;;;16.30;99.90;;;;;;5094713;28;20216;-81
2022/08/02 00:37:41;;;;;;;4.93;1.95;;;16.30;99.90;;;;;;5095028;28;20223;-80
2022/08/02 00:40:10;;;;;;;4.15;1.98;;;16.30;99.90;;;;;;5077346;28;20204;-81
2022/08/02 00:42:37;;;;;;;3.35;1.63;;;16.30;99.90;;;;;;5074751;28;20190;-80
2022/08/02 00:45:05;;;;;;;5.22;1.70;;;16.30;99.90;;;;;;5074825;28;20308;-81
2022/08/02 00:47:33;;;;;;;5.25;1.70;;;16.30;99.90;;;;;;5075098;28;20197;-80
2022/08/02 00:50:00;;;;;;;5.75;1.70;;;16.30;99.90;;;;;;5074679;28;20235;-81
2022/08/02 00:52:26;;;;;;;2.72;1.55;;;16.20;99.90;;;;;;5074376;28;20185;-80
2022/08/02 00:54:53;;;;;;;3.30;1.92;;;16.20;99.90;;;;;;5084276;28;20223;-80
2022/08/02 00:57:20;;;;;;;3.30;1.67;;;16.20;99.90;;;;;;5094632;28;20562;-80
2022/08/02 00:59:47;;;;;;;3.20;1.70;;;16.20;99.90;;;;;;5093952;28;20236;-80
2022/08/02 01:02:14;;;;;;;3.90;1.70;;;16.20;99.90;;;;;;5094878;28;20283;-80
2022/08/02 01:04:42;;;;;;;3.85;1.55;;;16.10;99.90;;;;;;5090407;28;20231;-80
2022/08/02 01:07:09;;;;;;;3.22;1.70;;;16.10;99.90;;;;;;5094144;28;20200;-79
2022/08/02 01:09:36;;;;;;;3.72;1.50;;;16.10;99.90;;;;;;5094342;28;20205;-80
2022/08/02 01:12:03;;;;;;;2.80;1.70;;;16.10;99.90;;;;;;5094540;28;20291;-78
2022/08/02 01:14:30;;;;;;;3.30;2.00;;;16.10;99.90;;;;;;5085111;28;20212;-80
2022/08/02 01:17:02;;;;;;;6.63;1.77;;;16.10;99.90;;;;;;5073869;28;20231;-80
2022/08/02 01:19:39;;;;;;;2.50;1.50;;;16.20;99.90;;;;;;5074657;28;20540;-80
2022/08/02 01:22:22;;;;;;;4.90;1.80;;;16.10;99.90;;;;;;5084557;28;20200;-80
2022/08/02 01:25:06;;;;;;;4.40;1.55;;;16.10;99.90;;;;;;5094897;28;20418;-79
2022/08/02 01:27:42;;;;;;;3.75;1.77;;;16.10;99.90;;;;;;5094693;28;20199;-80
2022/08/02 01:30:11;;;;;;;3.42;1.92;;;16.10;99.90;;;;;;5095751;28;20207;-80
2022/08/02 01:32:44;;;;;;;3.05;1.58;;;16.10;99.90;;;;;;5095617;28;20215;-80
2022/08/02 01:35:15;;;;;;;3.15;1.65;;;16.10;99.90;;;;;;5094614;28;20196;-80
2022/08/02 01:37:49;;;;;;;3.17;1.52;;;16.10;99.90;;;;;;5095377;28;20276;-80
2022/08/02 01:40:21;;;;;;;2.63;1.58;;;16.10;99.90;;;;;;5095904;28;20238;-80
2022/08/02 01:42:52;;;;;;;3.45;1.50;;;16.10;99.90;;;;;;5094905;28;20189;-81
2022/08/02 01:45:23;;;;;;;3.38;1.35;;;16.00;99.90;;;;;;5094280;28;20836;-80
2022/08/02 01:47:51;;;;;;;2.60;1.10;;;16.00;99.90;;;;;;5093448;28;20522;-79
2022/08/02 01:50:25;;;;;;;4.20;1.67;;;16.00;99.90;;;;;;5094190;28;20196;-81
2022/08/02 01:52:55;;;;;;;2.60;1.60;;;16.00;99.90;;;;;;5093724;28;20197;-80
2022/08/02 01:55:25;;;;;;;4.15;1.50;;;16.00;99.90;;;;;;5093197;28;20279;-79
2022/08/02 01:57:57;;;;;;;3.65;1.55;;;16.00;99.90;;;;;;5094299;28;20201;-80
2022/08/02 02:00:28;;;;;;;1.77;1.10;;;16.00;99.90;;;;;;5088521;28;20197;-81
2022/08/02 02:02:58;;;;;;;2.40;1.80;;;15.90;99.90;;;;;;5072361;28;20290;-81
2022/08/02 02:05:27;;;;;;;4.63;1.48;;;15.90;99.90;;;;;;5072520;28;20241;-80
2022/08/02 02:07:57;;;;;;;5.53;1.85;;;15.90;99.90;;;;;;5072851;28;20185;-79
2022/08/02 02:10:27;;;;;;;5.32;1.80;;;15.90;99.90;;;;;;5096471;22;20204;-80
2022/08/02 02:12:56;;;;;;;4.28;1.90;;;15.90;99.90;;;;;;5093084;28;20204;-81
2022/08/02 02:15:26;;;;;;;2.40;1.17;;;15.90;99.90;;;;;;5072977;28;20201;-79
2022/08/02 02:17:55;;;;;;;3.92;1.38;;;15.90;99.90;;;;;;5072575;28;20197;-80
2022/08/02 02:20:22;;;;;;;1.95;0.90;;;15.90;99.90;;;;;;5072699;28;20209;-81
2022/08/02 02:22:50;;;;;;;3.00;1.25;;;15.90;99.90;;;;;;5072836;28;20198;-79
2022/08/02 02:25:19;;;;;;;5.80;1.38;;;15.90;99.90;;;;;;5072797;28;20246;-81
2022/08/02 02:27:51;;;;;;;2.30;0.90;;;15.90;99.90;;;;;;5072798;28;20282;-80
2022/08/02 02:30:19;;;;;;;5.07;1.25;;;15.90;99.90;;;;;;5072179;28;20197;-78
2022/08/02 02:32:51;;;;;;;3.50;1.00;;;16.00;99.90;;;;;;5072306;28;20597;-80
2022/08/02 02:35:19;;;;;;;1.92;1.08;;;16.00;99.90;;;;;;5072640;28;20193;-80
2022/08/02 02:37:49;;;;;;;1.33;0.70;;;15.90;99.90;;;;;;5086263;28;20236;-80
2022/08/02 02:40:17;;;;;;;3.90;1.02;;;15.90;99.90;;;;;;5093110;28;20649;-79
2022/08/02 02:42:46;;;;;;;2.05;1.00;;;16.00;99.90;;;;;;5077870;28;20209;-78
2022/08/02 02:45:15;;;;;;;4.15;1.23;;;16.00;99.90;;;;;;5071839;28;20201;-80
2022/08/02 02:47:43;;;;;;;1.92;0.90;;;15.90;99.90;;;;;;5072218;28;20280;-79
2022/08/02 02:50:12;;;;;;;2.28;1.00;;;15.90;99.90;;;;;;5072369;28;20197;-80
2022/08/02 02:52:40;;;;;;;4.28;1.23;;;15.90;99.90;;;;;;5073143;28;20288;-81
2022/08/02 02:55:08;;;;;;;2.42;0.80;;;15.90;99.90;;;;;;5072199;28;20197;-80
2022/08/02 02:57:37;;;;;;;3.38;1.20;;;15.90;99.90;;;;;;5072831;28;20231;-80
2022/08/02 03:00:06;;;;;;;3.22;1.20;;;15.90;99.90;;;;;;5071590;28;20304;-81
2022/08/02 03:02:33;;;;;;;3.17;1.10;;;15.90;99.90;;;;;;5072271;28;20201;-81
2022/08/02 03:05:02;;;;;;;2.05;1.00;;;15.90;99.90;;;;;;5071800;28;20207;-81
2022/08/02 03:07:33;;;;;;;3.72;1.27;;;15.90;99.90;;;;;;5092367;28;20337;-79
2022/08/02 03:09:59;;;;;;;3.42;1.30;;;15.90;99.90;;;;;;5092638;28;20189;-81
2022/08/02 03:12:27;;;;;;;3.97;1.30;;;16.00;99.90;;;;;;5091945;28;20219;-80
2022/08/02 03:14:54;;;;;;;2.97;1.45;;;16.00;99.90;;;;;;5090313;28;20623;-80
2022/08/02 03:17:21;;;;;;;2.95;1.30;;;16.00;99.90;;;;;;5092064;28;20220;-80
2022/08/02 03:19:48;;;;;;;2.08;1.10;;;16.00;99.90;;;;;;5091901;28;20192;-80
2022/08/02 03:22:15;;;;;;;4.18;1.30;;;16.00;99.90;;;;;;5092905;28;20280;-81
2022/08/02 03:24:43;;;;;;;6.30;1.40;;;16.00;99.90;;;;;;5076590;28;20499;-80
2022/08/02 03:27:10;;;;;;;4.00;1.20;;;16.00;99.90;;;;;;5071426;28;20289;-80
2022/08/02 03:29:36;;;;;;;2.22;1.17;;;16.00;99.90;;;;;;5072061;28;20629;-82
2022/08/02 03:32:04;;;;;;;3.50;1.23;;;16.00;99.90;;;;;;5072731;28;20205;-83
2022/08/02 03:34:32;;;;;;;3.55;1.50;;;16.00;99.90;;;;;;5071147;28;20344;-80
2022/08/02 03:36:59;;;;;;;5.18;1.08;;;16.00;99.90;;;;;;5072089;28;20221;-79
2022/08/02 03:39:27;;;;;;;2.53;1.38;;;16.10;99.90;;;;;;5072215;28;20221;-81
2022/08/02 03:41:56;;;;;;;4.72;1.00;;;16.10;99.90;;;;;;5071033;28;20288;-82
2022/08/02 03:44:25;;;;;;;2.60;1.20;;;16.10;99.90;;;;;;5071637;28;20209;-80
2022/08/02 03:46:52;;;;;;;3.00;1.20;;;16.00;99.90;;;;;;5074576;28;20208;-79
2022/08/02 03:49:20;;;;;;;3.72;1.25;;;16.10;99.90;;;;;;5091481;28;20192;-81
2022/08/02 03:51:48;;;;;;;2.08;0.95;;;16.10;99.90;;;;;;5078346;28;20193;-82
2022/08/02 03:54:17;;;;;;;4.63;1.00;;;16.00;99.90;;;;;;5072087;28;20221;-79
2022/08/02 03:56:44;;;;;;;4.15;1.40;;;16.00;99.90;;;;;;5056750;28;20401;-83
2022/08/02 03:59:15;;;;;;;3.78;1.30;;;16.00;99.90;;;;;;5075025;28;20701;-81
2022/08/02 04:01:42;;;;;;;3.08;1.35;;;16.10;99.90;;;;;;5080971;28;20211;-83
2022/08/02 04:04:09;;;;;;;2.92;1.38;;;16.00;99.90;;;;;;5095946;28;20201;-81
2022/08/02 04:06:37;;;;;;;4.45;1.27;;;16.00;99.90;;;;;;5095544;28;20588;-82
2022/08/02 04:09:04;;;;;;;1.85;1.27;;;16.00;99.90;;;;;;5078167;28;20211;-82
2022/08/02 04:11:31;;;;;;;4.57;1.55;;;16.00;99.90;;;;;;5075634;28;20535;-82
2022/08/02 04:13:59;;;;;;;2.65;1.52;;;16.00;99.90;;;;;;5086434;28;20204;-82
2022/08/02 04:16:37;;;;;;;3.60;1.67;;;16.00;99.90;;;;;;5094995;28;20681;-83
2022/08/02 04:19:07;;;;;;;5.00;1.80;;;16.00;99.90;;;;;;5096039;28;20688;-83
2022/08/02 04:21:37;;;;;;;4.32;1.73;;;16.00;99.90;;;;;;5095661;28;20193;-81
2022/08/02 04:24:06;;;;;;;3.50;1.60;;;16.00;99.90;;;;;;5093535;28;20207;-81
2022/08/02 04:26:34;;;;;;;3.58;1.65;;;16.00;99.90;;;;;;5095791;28;20526;-82
2022/08/02 04:29:02;;;;;;;3.75;1.75;;;16.00;99.90;;;;;;5101056;28;20258;-80
2022/08/02 04:31:30;;;;;;;4.70;1.60;;;16.00;99.90;;;;;;5086673;28;20212;-81
2022/08/02 04:33:58;;;;;;;6.22;1.95;;;16.00;99.90;;;;;;5075047;28;20193;-80
2022/08/02 04:36:25;;;;;;;5.57;2.00;;;16.10;99.90;;;;;;5073959;28;20772;-81
2022/08/02 04:38:52;;;;;;;5.78;1.65;;;16.10;99.90;;;;;;5074181;28;20312;-81
2022/08/02 04:41:19;;;;;;;4.67;1.83;;;16.10;99.90;;;;;;5074888;28;20197;-81
2022/08/02 04:43:46;;;;;;;3.40;1.63;;;16.10;99.90;;;;;;5086970;28;20205;-80
2022/08/02 04:46:13;;;;;;;3.30;1.50;;;16.10;99.90;;;;;;5094944;28;20200;-84
2022/08/02 04:48:41;;;;;;;2.03;1.60;;;16.10;99.90;;;;;;5078050;28;20197;-81
2022/08/02 04:51:08;;;;;;;2.33;1.65;;;16.20;99.90;;;;;;5074449;28;20199;-80
2022/08/02 04:53:34;;;;;;;5.97;1.90;;;16.20;99.90;;;;;;5075951;28;20219;-80
2022/08/02 04:56:01;;;;;;;2.90;1.55;;;16.20;99.90;;;;;;5074786;28;20203;-81
2022/08/02 04:58:28;;;;;;;5.97;1.65;;;16.20;99.90;;;;;;5072832;28;20217;-81
2022/08/02 05:00:55;;;;;;;3.38;1.65;;;16.20;99.90;;;;;;5071921;28;20216;-83
2022/08/02 05:03:22;;;;;;;5.45;1.90;;;16.30;99.90;;;;;;5066790;28;20498;-81
2022/08/02 05:05:50;;;;;;;5.47;1.90;;;16.30;99.90;;;;;;5070238;28;20193;-80
2022/08/02 05:08:17;;;;;;;4.72;1.90;;;16.40;99.90;;;;;;5073603;28;20197;-81
2022/08/02 05:10:44;;;;;;;4.60;1.90;;;16.40;99.90;;;;;;5094280;28;20243;-80
2022/08/02 05:13:11;;;;;;;2.65;1.52;;;16.40;99.90;;;;;;5093879;28;20192;-83
2022/08/02 05:15:37;;;;;;;5.55;2.00;;;16.40;99.90;;;;;;5094832;28;20201;-82
2022/08/02 05:18:05;;;;;;;3.67;1.88;;;16.50;99.90;;;;;;5077671;28;20232;-82
2022/08/02 05:20:31;;;;;;;9.02;1.85;;;16.60;99.90;;;;;;5076243;28;20205;-81
2022/08/02 05:23:00;;;;;;;4.30;2.33;;;16.60;99.90;;;;;;5084819;28;20198;-81
2022/08/02 05:25:27;;;;;;;6.95;2.40;;;16.70;99.90;;;;;;5084452;28;20676;-81
2022/08/02 05:27:53;;;;;;;3.00;1.90;;;16.80;99.90;;;;;;5081310;28;20205;-78
2022/08/02 05:30:20;;;;;;;3.90;1.73;;;16.80;99.90;;;;;;5071058;28;20212;-80
2022/08/02 05:32:49;;;;;;;6.10;2.40;;;16.80;99.90;;;;;;5072876;28;20787;-78
2022/08/02 05:35:18;;;;;;;4.70;2.20;;;16.90;99.90;;;;;;5074348;28;20204;-79
2022/08/02 05:37:45;;;;;;;5.47;1.95;;;17.00;99.90;;;;;;5081621;28;20224;-80
2022/08/02 05:40:13;;;;;;;6.75;2.60;;;17.00;99.90;;;;;;5071422;28;20276;-81
2022/08/02 05:42:40;;;;;;;4.15;1.85;;;17.00;99.90;;;;;;5073752;28;20280;-80
2022/08/02 05:45:08;;;;;;;4.82;2.30;;;17.10;99.90;;;;;;5073705;28;20194;-80
2022/08/02 05:47:35;;;;;;;6.78;2.17;;;17.20;99.90;;;;;;5072408;28;20209;-79
2022/08/02 05:50:02;;;;;;;6.15;2.65;;;17.20;99.90;;;;;;5073730;28;20547;-79
2022/08/02 05:52:34;;;;;;;5.72;2.13;;;17.30;99.90;;;;;;5073384;28;20488;-80
2022/08/02 05:55:06;;;;;;;12.02;2.58;;;17.30;99.90;;;;;;5072927;28;20212;-79
2022/08/02 05:57:41;;;;;;;3.72;1.98;;;17.40;99.90;;;;;;5073574;28;20216;-77
2022/08/02 06:00:12;;;;;;;8.85;2.55;;;17.40;99.90;;;;;;5073629;28;20189;-82
2022/08/02 06:02:52;;;;;;;6.65;2.05;;;17.50;99.90;;;;;;5072538;28;20205;-81
2022/08/02 06:05:20;;;;;;;6.22;2.47;;;17.60;99.90;;;;;;5073146;28;20203;-82
2022/08/02 06:07:50;;;;;;;6.63;2.28;;;17.80;99.90;;;;;;5073088;28;20197;-80
2022/08/02 06:10:20;;;;;;;3.53;2.10;;;18.00;99.90;;;;;;5071358;28;20225;-80
2022/08/02 06:12:54;;;;;;;4.72;2.30;;;18.20;99.90;;;;;;5071855;28;20221;-79
2022/08/02 06:15:21;;;;;;;6.70;2.40;;;18.40;99.90;;;;;;5088021;28;20564;-81
2022/08/02 06:17:48;;;;;;;3.50;2.25;;;18.60;99.90;;;;;;5092615;28;20695;-83
2022/08/02 06:20:15;;;;;;;3.67;2.03;;;18.70;99.90;;;;;;5088871;28;20540;-79
2022/08/02 06:22:44;;;;;;;3.53;2.45;;;19.00;99.90;;;;;;5072046;28;20207;-78
2022/08/02 06:25:12;;;;;;;3.65;2.15;;;19.20;99.90;;;;;;5062136;28;20215;-80
2022/08/02 06:27:40;;;;;;;3.72;2.47;;;19.40;99.90;;;;;;5068279;28;20201;-82
2022/08/02 06:30:10;;;;;;;6.00;3.05;;;19.50;99.90;;;;;;5072150;28;20189;-78
2022/08/02 06:32:37;;;;;;;7.65;2.53;;;19.80;99.90;;;;;;5072608;28;20212;-78
2022/08/02 06:35:05;;;;;;;4.93;2.50;;;19.90;99.90;;;;;;5072138;28;20205;-79
2022/08/02 06:37:38;;;;;;;9.65;3.30;;;20.20;99.90;;;;;;5070936;28;20240;-81
2022/08/02 06:40:11;;;;;;;5.38;2.53;;;20.30;99.90;;;;;;5072852;28;20204;-78
2022/08/02 06:42:47;;;;;;;3.75;2.20;;;20.50;99.90;;;;;;5072603;28;20200;-80
2022/08/02 06:45:15;;;;;;;5.43;2.92;;;20.80;99.90;;;;;;5071619;28;20212;-80
2022/08/02 06:47:43;;;;;;;8.95;2.80;;;21.00;99.90;;;;;;5073454;28;20498;-83
2022/08/02 06:50:11;;;;;;;5.47;2.75;;;21.20;99.90;;;;;;5072693;28;20258;-81
2022/08/02 06:52:38;;;;;;;3.47;2.40;;;21.30;99.90;;;;;;5081867;28;20201;-79
2022/08/02 06:55:06;;;;;;;6.57;3.00;;;21.50;99.90;;;;;;5093273;28;20291;-80
2022/08/02 06:57:34;;;;;;;7.00;3.78;;;21.70;99.90;;;;;;5092375;28;20224;-82
2022/08/02 07:00:03;;;;;;;7.18;3.58;;;22.10;99.90;;;;;;5077893;28;20212;-80
2022/08/02 07:02:31;;;;;;;9.52;3.85;;;22.30;99.90;;;;;;5069770;28;20201;-80
2022/08/02 07:04:59;;;;;;;6.68;4.32;;;22.50;99.90;;;;;;5064023;28;20205;-82
2022/08/02 07:07:27;;;;;;;7.38;3.72;;;22.60;99.90;;;;;;5066429;28;20200;-79
2022/08/02 07:09:54;;;;;;;7.63;3.03;;;22.60;99.90;;;;;;5066244;28;20492;-79
2022/08/02 07:12:21;;;;;;;7.47;3.88;;;22.70;99.90;;;;;;5063539;28;20233;-80
2022/08/02 07:14:47;;;;;;;6.28;3.30;;;22.70;99.90;;;;;;5068829;28;20301;-82
2022/08/02 07:17:14;;;;;;;6.93;3.40;;;22.90;99.90;;;;;;5065475;28;20280;-80
2022/08/02 07:19:43;;;;;;;7.15;3.67;;;23.20;99.90;;;;;;5078512;28;20204;-81
2022/08/02 07:22:11;;;;;;;7.35;3.83;;;23.50;99.90;;;;;;5091956;28;20196;-80
2022/08/02 07:24:38;;;;;;;6.50;3.03;;;23.80;99.90;;;;;;5092379;28;20197;-80
2022/08/02 07:27:05;;;;;;;5.38;3.40;;;24.00;99.90;;;;;;5091498;28;20208;-84
2022/08/02 07:29:32;;;;;;;5.55;4.03;;;24.20;99.90;;;;;;5095403;28;20200;-80
2022/08/02 07:31:59;;;;;;;7.63;4.22;;;24.20;99.90;;;;;;5097666;28;20267;-83
2022/08/02 07:34:26;;;;;;;6.55;3.72;;;24.40;99.90;;;;;;5092657;28;20556;-83
2022/08/02 07:36:55;;;;;;;6.93;4.22;;;24.50;99.90;;;;;;5076152;28;20208;-84
2022/08/02 07:39:22;;;;;;;4.25;3.65;;;24.70;99.90;;;;;;5075537;28;20311;-82
2022/08/02 07:41:51;;;;;;;7.03;3.78;;;24.80;99.90;;;;;;5063231;28;20200;-81
2022/08/02 07:44:18;;;;;;;6.32;3.78;;;25.10;99.90;;;;;;5074843;28;20193;-80
2022/08/02 07:46:45;;;;;;;5.50;3.78;;;25.30;99.90;;;;;;5074389;28;20581;-81
2022/08/02 07:49:17;;;;;;;6.10;3.70;;;25.60;99.90;;;;;;5075345;28;20228;-81
2022/08/02 07:51:44;;;;;;;6.35;3.88;;;25.70;99.90;;;;;;5075203;28;20255;-82
2022/08/02 07:54:12;;;;;;;6.65;4.97;;;25.70;99.90;;;;;;5074211;28;20205;-78
2022/08/02 07:56:42;;;;;;;4.43;3.60;;;25.50;99.90;;;;;;5075495;28;20201;-82
2022/08/02 07:59:10;;;;;;;5.78;3.33;;;25.60;99.90;;;;;;5074427;28;20619;-79
2022/08/02 08:01:36;;;;;;;4.10;3.40;;;25.60;99.90;;;;;;5073831;28;20489;-80
2022/08/02 08:04:03;;;;;;;7.03;4.10;;;25.80;99.90;;;;;;5074366;28;20510;-80
2022/08/02 08:06:30;;;;;;;5.45;3.63;;;26.00;99.90;;;;;;5075316;28;20228;-79
2022/08/02 08:08:57;;;;;;;6.57;4.32;;;26.20;99.90;;;;;;5066107;28;20205;-80
2022/08/02 08:11:26;;;;;;;8.07;3.75;;;26.40;99.90;;;;;;5074552;28;20233;-80
2022/08/02 08:13:53;;;;;;;5.38;3.97;;;26.70;99.90;;;;;;5074921;28;20624;-80
2022/08/02 08:16:20;;;;;;;6.68;3.53;;;26.90;99.90;;;;;;5074153;28;20476;-82
2022/08/02 08:18:47;;;;;;;4.97;3.33;;;27.20;99.90;;;;;;5074455;28;20259;-79
2022/08/02 08:21:13;;;;;;;8.02;4.32;;;27.40;99.90;;;;;;5069251;28;20255;-80
2022/08/02 08:23:40;;;;;;;7.93;4.15;;;27.40;99.90;;;;;;5074338;28;20197;-81
2022/08/02 08:26:07;;;;;;;8.05;4.45;;;27.50;99.90;;;;;;5074771;28;20193;-82
2022/08/02 08:28:35;;;;;;;6.63;3.60;;;27.70;99.90;;;;;;5090903;28;20204;-79
2022/08/02 08:31:02;;;;;;;6.28;4.03;;;27.50;99.90;;;;;;5094598;28;20203;-80
2022/08/02 08:33:29;;;;;;;11.10;7.15;;;27.50;99.90;;;;;;5084265;28;20292;-81
2022/08/02 08:35:56;;;;;;;8.82;7.80;;;27.70;99.90;;;;;;5075312;28;20190;-82
2022/08/02 08:38:23;;;;;;;11.98;7.43;;;27.90;99.90;;;;;;5075081;28;20225;-82
2022/08/02 08:40:51;;;;;;;9.52;8.50;;;28.00;99.90;;;;;;5074481;28;20581;-82
2022/08/02 08:43:18;;;;;;;13.27;9.30;;;28.10;99.90;;;;;;5078422;28;20594;-81
2022/08/02 08:45:47;;;;;;;8.23;7.43;;;28.10;99.90;;;;;;5079328;28;20662;-81
2022/08/02 08:48:15;;;;;;;11.95;8.32;;;28.20;99.90;;;;;;5075042;28;20223;-81
2022/08/02 08:50:49;;;;;;;9.38;6.90;;;28.20;99.90;;;;;;5074232;28;20319;-80
2022/08/02 08:53:18;;;;;;;9.23;7.15;;;28.30;99.90;;;;;;5074895;28;20192;-82
2022/08/02 08:55:45;;;;;;;7.40;5.47;;;28.50;99.90;;;;;;5082411;28;20212;-83
2022/08/02 08:58:13;;;;;;;6.32;5.60;;;28.40;99.90;;;;;;5094079;28;20307;-80
2022/08/02 09:00:41;;;;;;;7.10;5.75;;;28.60;99.90;;;;;;5094974;28;20672;-82
2022/08/02 09:03:09;;;;;;;7.68;5.38;;;28.70;99.90;;;;;;5095676;28;20538;-84
2022/08/02 09:05:37;;;;;;;10.30;6.60;;;28.80;99.90;;;;;;5093685;28;20524;-82
2022/08/02 09:08:05;;;;;;;5.43;4.93;;;28.70;99.90;;;;;;5094953;28;20212;-83
2022/08/02 09:10:40;;;;;;;5.40;4.88;;;28.50;99.90;;;;;;5094601;28;20522;-84
2022/08/02 09:13:09;;;;;;;8.02;5.50;;;28.30;99.90;;;;;;5082634;28;20216;-83
2022/08/02 09:15:37;;;;;;;5.68;4.60;;;28.30;99.90;;;;;;5073845;28;20697;-81
2022/08/02 09:18:05;;;;;;;7.50;6.32;;;28.30;99.90;;;;;;5073933;28;20707;-81
2022/08/02 09:20:34;;;;;;;10.95;8.27;;;28.30;99.90;;;;;;5074505;28;20651;-83
2022/08/02 09:23:08;;;;;;;12.98;9.18;;;28.00;99.90;;;;;;5074143;28;20206;-84
2022/08/02 09:25:36;;;;;;;11.57;8.70;;;27.80;99.90;;;;;;5077719;28;20192;-84
2022/08/02 09:28:04;;;;;;;12.90;10.70;;;27.40;99.90;;;;;;5094697;28;20188;-81
2022/08/02 09:30:32;;;;;;;12.20;10.70;;;27.00;99.90;;;;;;5094595;28;20258;-81
2022/08/02 09:32:59;;;;;;;13.35;10.70;;;26.70;99.90;;;;;;5092634;28;20201;-82
2022/08/02 09:35:35;;;;;;;14.75;12.48;;;26.60;99.90;;;;;;5094204;28;20206;-82
2022/08/02 09:38:12;;;;;;;15.25;13.65;;;26.40;99.90;;;;;;5093925;28;20265;-81
2022/08/02 09:40:43;;;;;;;17.63;15.15;;;26.30;99.90;;;;;;5094137;28;20490;-82
2022/08/02 09:43:10;;;;;;;16.42;14.68;;;26.40;99.90;;;;;;5092362;28;20551;-82
2022/08/02 09:45:37;;;;;;;16.58;13.43;;;26.30;99.90;;;;;;5094071;28;20200;-82
2022/08/02 09:48:08;;;;;;;18.88;16.88;;;26.40;99.90;;;;;;5081436;28;20201;-84
2022/08/02 09:50:37;;;;;;;20.58;16.30;;;26.50;99.90;;;;;;5073745;28;20292;-81
2022/08/02 09:53:11;;;;;;;14.73;13.25;;;26.50;99.90;;;;;;5073491;28;20203;-83
2022/08/02 09:55:38;;;;;;;15.65;13.88;;;26.80;99.90;;;;;;5073190;28;20495;-83
2022/08/02 09:58:18;;;;;;;13.02;11.68;;;27.20;99.90;;;;;;5073487;28;20228;-82
2022/08/02 10:00:53;;;;;;;14.77;11.65;;;27.50;99.90;;;;;;5072719;28;20201;-81
2022/08/02 10:03:20;;;;;;;13.48;12.10;;;27.50;99.90;;;;;;5073664;28;20193;-84
2022/08/02 10:05:52;;;;;;;21.23;14.15;;;27.50;99.90;;;;;;5073324;28;20209;-81
2022/08/02 10:08:19;;;;;;;16.52;12.38;;;27.30;99.90;;;;;;5072546;28;20277;-81
2022/08/02 10:10:46;;;;;;;16.27;13.52;;;27.20;99.90;;;;;;5072875;28;20324;-82
2022/08/02 10:13:14;;;;;;;13.65;12.05;;;27.00;99.90;;;;;;5075209;28;20190;-80
2022/08/02 10:15:41;;;;;;;14.30;11.38;;;27.00;99.90;;;;;;5092414;28;20224;-81
2022/08/02 10:18:09;;;;;;;13.00;8.98;;;27.00;99.90;;;;;;5078620;28;20217;-82
2022/08/02 10:20:41;;;;;;;11.73;10.15;;;27.10;99.90;;;;;;5072839;28;20203;-80
2022/08/02 10:23:12;;;;;;;11.60;9.05;;;27.00;99.90;;;;;;5072683;28;20198;-82
2022/08/02 10:25:40;;;;;;;12.20;8.85;;;26.90;99.90;;;;;;5072053;28;20609;-83
2022/08/02 10:28:07;;;;;;;17.88;11.35;;;26.90;99.90;;;;;;5072618;28;20201;-80
2022/08/02 10:30:38;;;;;;;14.43;11.23;;;26.70;99.90;;;;;;5080089;28;20208;-81
2022/08/02 10:33:08;;;;;;;15.20;10.95;;;26.50;99.90;;;;;;5092952;28;20189;-82
2022/08/02 10:35:38;;;;;;;14.77;11.50;;;26.50;99.90;;;;;;5083239;28;20228;-81
2022/08/02 10:38:08;;;;;;;17.33;10.70;;;26.40;99.90;;;;;;5072523;28;20684;-82
2022/08/02 10:40:48;;;;;;;12.43;9.10;;;26.20;99.90;;;;;;5072345;28;20205;-81
2022/08/02 10:43:48;;;;;;;18.38;12.13;;;26.30;99.90;;;;;;5071274;28;20351;-80
2022/08/02 10:46:30;;;;;;;14.23;10.35;;;26.30;99.90;;;;;;5071961;28;20274;-83
2022/08/02 10:49:09;;;;;;;16.00;10.27;;;26.40;99.90;;;;;;5071584;28;20193;-80
2022/08/02 10:51:56;;;;;;;14.77;11.35;;;26.50;99.90;;;;;;5071483;28;20597;-81
2022/08/02 10:54:24;;;;;;;13.98;9.63;;;26.50;99.90;;;;;;5072584;28;20287;-80
2022/08/02 10:56:54;;;;;;;9.88;8.82;;;26.30;99.90;;;;;;5071186;28;20365;-81
2022/08/02 10:59:26;;;;;;;10.93;8.63;;;26.40;99.90;;;;;;5072511;28;20300;-90
2022/08/02 11:02:00;;;;;;;12.30;8.90;;;26.30;99.90;;;;;;5052501;28;20189;-85
2022/08/02 11:04:28;;;;;;;18.08;9.27;;;26.40;99.90;;;;;;5050838;28;20542;-81
2022/08/02 11:07:10;;;;;;;11.48;8.13;;;26.30;99.90;;;;;;5051809;28;20751;-82
2022/08/02 11:09:38;;;;;;;13.75;7.53;;;26.20;99.90;;;;;;5061658;28;20236;-82
2022/08/02 11:12:09;;;;;;;15.35;9.48;;;26.10;99.90;;;;;;5076103;28;20800;-82
2022/08/02 11:14:37;;;;;;;14.90;9.25;;;25.90;99.90;;;;;;5092638;28;20189;-82
2022/08/02 11:17:09;;;;;;;19.23;9.57;;;25.80;99.90;;;;;;5081859;28;20211;-79
2022/08/02 11:20:24;;;;;;;10.45;6.57;;;25.90;99.90;;;;;;5070991;28;20250;-82
2022/08/02 11:22:52;;;;;;;11.15;6.28;;;25.80;99.90;;;;;;5022008;28;20197;-81
2022/08/02 11:25:35;;;;;;;10.20;6.32;;;25.70;99.90;;;;;;5069373;28;20213;-82
2022/08/02 11:28:11;;;;;;;14.52;6.72;;;25.50;99.90;;;;;;5070613;28;20194;-79
2022/08/02 11:30:38;;;;;;;8.15;5.10;;;25.60;99.90;;;;;;5070697;28;20931;-81
2022/08/02 11:33:06;;;;;;;13.80;7.03;;;25.70;99.90;;;;;;5071018;28;20661;-85
2022/08/02 11:35:35;;;;;;;15.35;7.15;;;25.80;99.90;;;;;;5072051;28;20284;-82
2022/08/02 11:38:17;;;;;;;9.52;6.85;;;25.80;99.90;;;;;;5072440;28;20282;-81
2022/08/02 11:40:45;;;;;;;10.15;5.70;;;26.00;99.90;;;;;;5069331;28;20225;-80
2022/08/02 11:43:25;;;;;;;8.90;4.90;;;26.30;99.90;;;;;;5071417;28;20769;-80
2022/08/02 11:45:54;;;;;;;6.05;4.22;;;26.80;99.90;;;;;;5071105;28;20503;-80
2022/08/02 11:48:34;;;;;;;9.85;3.88;;;26.90;99.90;;;;;;5070017;28;20205;-82
2022/08/02 11:51:06;;;;;;;11.25;4.10;;;26.90;99.90;;;;;;5069953;28;20197;-81
2022/08/02 11:53:44;;;;;;;6.45;3.53;;;26.70;99.90;;;;;;5050440;28;20197;-82
2022/08/02 11:56:12;;;;;;;8.20;4.35;;;26.60;99.90;;;;;;5066883;28;20236;-82
2022/08/02 11:58:40;;;;;;;7.60;4.32;;;26.60;99.90;;;;;;5071186;28;20650;-82
2022/08/02 12:01:07;;;;;;;12.35;4.80;;;26.50;99.90;;;;;;5082091;28;20211;-82
2022/08/02 12:03:38;;;;;;;8.60;4.40;;;26.60;99.90;;;;;;5081715;28;20190;-82
2022/08/02 12:06:06;;;;;;;8.55;3.65;;;26.50;99.90;;;;;;5071485;28;20197;-81
2022/08/02 12:08:36;;;;;;;7.63;3.25;;;26.50;99.90;;;;;;5071418;28;20304;-84
2022/08/02 12:11:04;;;;;;;7.93;4.25;;;26.60;99.90;;;;;;5087710;28;20648;-81
2022/08/02 12:13:43;;;;;;;10.60;4.13;;;26.70;99.90;;;;;;5091684;28;20211;-82
2022/08/02 12:19:22;;;;;;;6.97;4.25;;;26.70;99.90;;;;;;5036174;28;20233;-82
2022/08/02 12:21:49;;;;;;;9.57;4.85;;;26.70;99.90;;;;;;5061766;28;20210;-81
2022/08/02 12:24:28;;;;;;;15.38;5.40;;;26.50;99.90;;;;;;5073092;28;20213;-82
2022/08/02 12:26:55;;;;;;;8.40;4.75;;;26.30;99.90;;;;;;5077472;28;20496;-82
2022/08/02 12:29:31;;;;;;;11.18;3.75;;;26.30;99.90;;;;;;5094636;28;20492;-84
2022/08/02 12:31:58;;;;;;;8.60;3.20;;;26.20;99.90;;;;;;5095463;28;20203;-83
2022/08/02 12:34:26;;;;;;;6.53;3.53;;;26.30;99.90;;;;;;5093829;28;20244;-83
2022/08/02 12:37:01;;;;;;;9.15;3.45;;;26.40;99.90;;;;;;5071814;28;20218;-80
2022/08/02 12:39:41;;;;;;;11.43;4.30;;;26.60;99.90;;;;;;5071840;28;20787;-80
2022/08/02 12:42:10;;;;;;;10.70;4.15;;;26.50;99.90;;;;;;5054233;28;20194;-85
2022/08/02 12:44:49;;;;;;;6.28;4.32;;;26.30;99.90;;;;;;5055012;28;20198;-78
2022/08/02 12:47:16;;;;;;;12.68;4.63;;;26.20;99.90;;;;;;5072307;28;20283;-80
2022/08/02 12:49:43;;;;;;;10.98;4.10;;;26.00;99.90;;;;;;5073159;28;20557;-81
2022/08/02 12:52:20;;;;;;;14.50;4.72;;;25.80;99.90;;;;;;5073873;28;20618;-81
2022/08/02 12:54:48;;;;;;;8.50;3.75;;;25.90;99.90;;;;;;5073794;28;20204;-80
2022/08/02 12:57:16;;;;;;;9.25;4.35;;;26.20;99.90;;;;;;5073220;28;20254;-81